< < Back
Terminal Aerodrome Forecast


Current Version              Previous Versions:   1  2  3  4  5  6  7  8  9  

Terminal Aerodrome Forecast

691
FTUS42 KCAE 300913 AAA
TAFCAE
TAF AMD
KCAE 300913Z 3009/3106 35006KT P6SM VCSH BKN040
      TEMPO 3009/3013 5SM -RA OVC012
     FM301800 34008KT P6SM VCSH BKN035
     FM310000 VRB04KT P6SM SCT040=

Latest METAR

114
SAUS80 KWBC 301600 CCA
MTRCAE
METAR KCAE 301556Z VRB05KT 10SM FEW021 BKN033 BKN065 26/19 A2996 RMK AO2
SLP142 T02560189 $


USA.gov is the U.S. government's official web portal to all federal, state and local government web resources and services.